sensor_id;sensor_type;location;lat;lon;timestamp;P1;durP1;ratioP1;P2;durP2;ratioP2
80157;SDS011;74139;59.092;37.932;2024-02-28T00:01:04;7.30;;;2.78;;
80157;SDS011;74139;59.092;37.932;2024-02-28T00:03:29;4.65;;;2.40;;
80157;SDS011;74139;59.092;37.932;2024-02-28T00:05:57;6.97;;;2.70;;
80157;SDS011;74139;59.092;37.932;2024-02-28T00:08:23;6.15;;;2.70;;
80157;SDS011;74139;59.092;37.932;2024-02-28T00:10:49;5.53;;;2.85;;
80157;SDS011;74139;59.092;37.932;2024-02-28T00:13:15;5.88;;;2.67;;
80157;SDS011;74139;59.092;37.932;2024-02-28T00:15:41;6.43;;;2.22;;
80157;SDS011;74139;59.092;37.932;2024-02-28T00:18:07;5.90;;;2.60;;
80157;SDS011;74139;59.092;37.932;2024-02-28T00:20:33;6.55;;;2.78;;
80157;SDS011;74139;59.092;37.932;2024-02-28T00:22:59;4.55;;;2.45;;
80157;SDS011;74139;59.092;37.932;2024-02-28T00:25:25;6.15;;;2.88;;
80157;SDS011;74139;59.092;37.932;2024-02-28T00:27:50;5.43;;;2.63;;
80157;SDS011;74139;59.092;37.932;2024-02-28T00:30:17;6.00;;;2.50;;
80157;SDS011;74139;59.092;37.932;2024-02-28T00:32:42;3.83;;;2.38;;
80157;SDS011;74139;59.092;37.932;2024-02-28T00:35:08;7.70;;;2.65;;
80157;SDS011;74139;59.092;37.932;2024-02-28T00:37:34;4.85;;;2.42;;
80157;SDS011;74139;59.092;37.932;2024-02-28T00:40:00;5.47;;;2.63;;
80157;SDS011;74139;59.092;37.932;2024-02-28T00:42:26;6.15;;;2.42;;
80157;SDS011;74139;59.092;37.932;2024-02-28T00:44:52;6.50;;;2.55;;
80157;SDS011;74139;59.092;37.932;2024-02-28T00:47:18;8.70;;;2.80;;
80157;SDS011;74139;59.092;37.932;2024-02-28T00:49:45;4.32;;;2.13;;
80157;SDS011;74139;59.092;37.932;2024-02-28T00:52:11;5.25;;;2.38;;
80157;SDS011;74139;59.092;37.932;2024-02-28T00:54:37;6.70;;;2.58;;
80157;SDS011;74139;59.092;37.932;2024-02-28T00:57:03;5.45;;;2.42;;
80157;SDS011;74139;59.092;37.932;2024-02-28T00:59:29;5.28;;;2.30;;
80157;SDS011;74139;59.092;37.932;2024-02-28T01:01:54;5.40;;;2.25;;
80157;SDS011;74139;59.092;37.932;2024-02-28T01:04:20;4.45;;;2.40;;
80157;SDS011;74139;59.092;37.932;2024-02-28T01:06:46;4.80;;;2.30;;
80157;SDS011;74139;59.092;37.932;2024-02-28T01:09:12;5.68;;;2.50;;
80157;SDS011;74139;59.092;37.932;2024-02-28T01:11:38;7.32;;;2.28;;
80157;SDS011;74139;59.092;37.932;2024-02-28T01:14:04;4.85;;;2.58;;
80157;SDS011;74139;59.092;37.932;2024-02-28T01:16:30;5.05;;;2.53;;
80157;SDS011;74139;59.092;37.932;2024-02-28T01:18:55;6.45;;;2.83;;
80157;SDS011;74139;59.092;37.932;2024-02-28T01:21:21;6.43;;;2.30;;
80157;SDS011;74139;59.092;37.932;2024-02-28T01:23:47;5.93;;;2.55;;
80157;SDS011;74139;59.092;37.932;2024-02-28T01:26:13;5.95;;;2.13;;
80157;SDS011;74139;59.092;37.932;2024-02-28T01:28:40;5.80;;;2.38;;
80157;SDS011;74139;59.092;37.932;2024-02-28T01:31:08;5.35;;;2.70;;
80157;SDS011;74139;59.092;37.932;2024-02-28T01:33:34;4.80;;;2.30;;
80157;SDS011;74139;59.092;37.932;2024-02-28T01:36:00;4.68;;;2.33;;
80157;SDS011;74139;59.092;37.932;2024-02-28T01:38:25;5.22;;;2.17;;
80157;SDS011;74139;59.092;37.932;2024-02-28T01:40:52;6.85;;;2.40;;
80157;SDS011;74139;59.092;37.932;2024-02-28T01:43:18;5.07;;;2.40;;
80157;SDS011;74139;59.092;37.932;2024-02-28T01:45:43;4.90;;;1.98;;
80157;SDS011;74139;59.092;37.932;2024-02-28T01:48:10;6.82;;;2.35;;
80157;SDS011;74139;59.092;37.932;2024-02-28T01:50:37;4.20;;;1.95;;
80157;SDS011;74139;59.092;37.932;2024-02-28T01:53:04;4.63;;;1.90;;
80157;SDS011;74139;59.092;37.932;2024-02-28T01:55:31;6.60;;;2.33;;
80157;SDS011;74139;59.092;37.932;2024-02-28T01:57:57;5.68;;;2.40;;
80157;SDS011;74139;59.092;37.932;2024-02-28T02:00:23;3.70;;;1.92;;
80157;SDS011;74139;59.092;37.932;2024-02-28T02:02:49;5.10;;;2.20;;
80157;SDS011;74139;59.092;37.932;2024-02-28T02:05:15;5.43;;;2.33;;
80157;SDS011;74139;59.092;37.932;2024-02-28T02:07:42;7.28;;;2.58;;
80157;SDS011;74139;59.092;37.932;2024-02-28T02:10:08;4.97;;;2.22;;
80157;SDS011;74139;59.092;37.932;2024-02-28T02:12:36;6.85;;;2.15;;
80157;SDS011;74139;59.092;37.932;2024-02-28T02:15:02;4.75;;;2.00;;
80157;SDS011;74139;59.092;37.932;2024-02-28T02:17:28;5.50;;;2.10;;
80157;SDS011;74139;59.092;37.932;2024-02-28T02:19:54;4.18;;;2.03;;
80157;SDS011;74139;59.092;37.932;2024-02-28T02:22:19;5.32;;;2.05;;
80157;SDS011;74139;59.092;37.932;2024-02-28T02:24:46;4.35;;;2.15;;
80157;SDS011;74139;59.092;37.932;2024-02-28T02:27:11;4.57;;;2.17;;
80157;SDS011;74139;59.092;37.932;2024-02-28T02:29:37;4.95;;;1.70;;
80157;SDS011;74139;59.092;37.932;2024-02-28T02:32:03;2.58;;;1.73;;
80157;SDS011;74139;59.092;37.932;2024-02-28T02:34:29;4.10;;;2.05;;
80157;SDS011;74139;59.092;37.932;2024-02-28T02:36:55;4.82;;;2.15;;
80157;SDS011;74139;59.092;37.932;2024-02-28T02:39:21;3.63;;;1.90;;
80157;SDS011;74139;59.092;37.932;2024-02-28T02:41:47;4.65;;;1.67;;
80157;SDS011;74139;59.092;37.932;2024-02-28T02:44:13;4.22;;;2.00;;
80157;SDS011;74139;59.092;37.932;2024-02-28T02:46:39;3.78;;;1.65;;
80157;SDS011;74139;59.092;37.932;2024-02-28T02:49:05;4.90;;;2.17;;
80157;SDS011;74139;59.092;37.932;2024-02-28T02:51:30;5.15;;;1.83;;
80157;SDS011;74139;59.092;37.932;2024-02-28T02:53:56;4.47;;;1.95;;
80157;SDS011;74139;59.092;37.932;2024-02-28T02:56:22;4.35;;;2.20;;
80157;SDS011;74139;59.092;37.932;2024-02-28T02:58:48;4.53;;;1.67;;
80157;SDS011;74139;59.092;37.932;2024-02-28T03:01:14;4.22;;;2.10;;
80157;SDS011;74139;59.092;37.932;2024-02-28T03:03:39;3.95;;;1.75;;
80157;SDS011;74139;59.092;37.932;2024-02-28T03:06:05;3.85;;;1.75;;
80157;SDS011;74139;59.092;37.932;2024-02-28T03:08:31;4.20;;;2.03;;
80157;SDS011;74139;59.092;37.932;2024-02-28T03:10:57;4.20;;;1.80;;
80157;SDS011;74139;59.092;37.932;2024-02-28T03:13:23;4.43;;;1.70;;
80157;SDS011;74139;59.092;37.932;2024-02-28T03:15:49;5.10;;;2.10;;
80157;SDS011;74139;59.092;37.932;2024-02-28T03:18:15;4.25;;;2.22;;
80157;SDS011;74139;59.092;37.932;2024-02-28T03:20:41;4.13;;;1.80;;
80157;SDS011;74139;59.092;37.932;2024-02-28T03:23:07;3.05;;;1.42;;
80157;SDS011;74139;59.092;37.932;2024-02-28T03:25:32;3.35;;;1.67;;
80157;SDS011;74139;59.092;37.932;2024-02-28T03:27:59;4.93;;;2.05;;
80157;SDS011;74139;59.092;37.932;2024-02-28T03:30:26;5.10;;;2.00;;
80157;SDS011;74139;59.092;37.932;2024-02-28T03:32:52;3.72;;;2.13;;
80157;SDS011;74139;59.092;37.932;2024-02-28T03:35:18;4.45;;;1.90;;
80157;SDS011;74139;59.092;37.932;2024-02-28T03:37:44;3.92;;;1.95;;
80157;SDS011;74139;59.092;37.932;2024-02-28T03:40:09;3.05;;;1.77;;
80157;SDS011;74139;59.092;37.932;2024-02-28T03:42:35;4.70;;;1.70;;
80157;SDS011;74139;59.092;37.932;2024-02-28T03:45:01;3.67;;;1.98;;
80157;SDS011;74139;59.092;37.932;2024-02-28T03:47:28;3.65;;;1.50;;
80157;SDS011;74139;59.092;37.932;2024-02-28T03:49:54;3.17;;;1.80;;
80157;SDS011;74139;59.092;37.932;2024-02-28T03:52:23;3.35;;;1.48;;
80157;SDS011;74139;59.092;37.932;2024-02-28T03:54:49;3.85;;;1.90;;
80157;SDS011;74139;59.092;37.932;2024-02-28T03:57:14;6.32;;;1.73;;
80157;SDS011;74139;59.092;37.932;2024-02-28T03:59:40;3.58;;;1.90;;
80157;SDS011;74139;59.092;37.932;2024-02-28T04:02:06;5.57;;;1.73;;
80157;SDS011;74139;59.092;37.932;2024-02-28T04:04:32;4.03;;;1.83;;
80157;SDS011;74139;59.092;37.932;2024-02-28T04:06:58;2.67;;;1.63;;
80157;SDS011;74139;59.092;37.932;2024-02-28T04:09:24;3.42;;;1.90;;
80157;SDS011;74139;59.092;37.932;2024-02-28T04:11:49;3.28;;;1.75;;
80157;SDS011;74139;59.092;37.932;2024-02-28T04:14:16;4.45;;;1.70;;
80157;SDS011;74139;59.092;37.932;2024-02-28T04:16:43;3.08;;;1.80;;
80157;SDS011;74139;59.092;37.932;2024-02-28T04:19:12;4.63;;;1.77;;
80157;SDS011;74139;59.092;37.932;2024-02-28T04:21:38;4.65;;;2.03;;
80157;SDS011;74139;59.092;37.932;2024-02-28T04:24:07;4.13;;;1.80;;
80157;SDS011;74139;59.092;37.932;2024-02-28T04:26:35;4.00;;;1.75;;
80157;SDS011;74139;59.092;37.932;2024-02-28T04:29:01;3.08;;;1.90;;
80157;SDS011;74139;59.092;37.932;2024-02-28T04:31:30;3.13;;;1.65;;
80157;SDS011;74139;59.092;37.932;2024-02-28T04:33:56;5.13;;;2.28;;
80157;SDS011;74139;59.092;37.932;2024-02-28T04:36:22;3.58;;;2.13;;
80157;SDS011;74139;59.092;37.932;2024-02-28T04:38:48;4.55;;;2.00;;
80157;SDS011;74139;59.092;37.932;2024-02-28T04:41:17;5.47;;;1.80;;
80157;SDS011;74139;59.092;37.932;2024-02-28T04:43:43;3.45;;;1.77;;
80157;SDS011;74139;59.092;37.932;2024-02-28T04:46:09;2.97;;;1.65;;
80157;SDS011;74139;59.092;37.932;2024-02-28T04:48:35;3.60;;;1.77;;
80157;SDS011;74139;59.092;37.932;2024-02-28T04:51:01;2.78;;;1.35;;
80157;SDS011;74139;59.092;37.932;2024-02-28T04:53:28;5.00;;;1.80;;
80157;SDS011;74139;59.092;37.932;2024-02-28T04:55:53;5.25;;;2.22;;
80157;SDS011;74139;59.092;37.932;2024-02-28T04:58:19;3.60;;;1.65;;
80157;SDS011;74139;59.092;37.932;2024-02-28T05:00:45;2.80;;;1.67;;
80157;SDS011;74139;59.092;37.932;2024-02-28T05:03:11;5.95;;;1.92;;
80157;SDS011;74139;59.092;37.932;2024-02-28T05:05:37;1.90;;;1.38;;
80157;SDS011;74139;59.092;37.932;2024-02-28T05:08:02;2.97;;;1.58;;
80157;SDS011;74139;59.092;37.932;2024-02-28T05:10:28;3.30;;;1.70;;
80157;SDS011;74139;59.092;37.932;2024-02-28T05:15:20;2.97;;;1.50;;
80157;SDS011;74139;59.092;37.932;2024-02-28T05:17:46;5.53;;;1.60;;
80157;SDS011;74139;59.092;37.932;2024-02-28T05:20:12;2.58;;;1.40;;
80157;SDS011;74139;59.092;37.932;2024-02-28T05:22:39;4.65;;;1.63;;
80157;SDS011;74139;59.092;37.932;2024-02-28T05:25:06;5.53;;;1.75;;
80157;SDS011;74139;59.092;37.932;2024-02-28T05:27:32;3.55;;;1.90;;
80157;SDS011;74139;59.092;37.932;2024-02-28T05:29:57;4.00;;;1.90;;
80157;SDS011;74139;59.092;37.932;2024-02-28T05:32:23;2.72;;;1.67;;
80157;SDS011;74139;59.092;37.932;2024-02-28T05:34:49;3.17;;;1.60;;
80157;SDS011;74139;59.092;37.932;2024-02-28T05:37:16;5.00;;;2.00;;
80157;SDS011;74139;59.092;37.932;2024-02-28T05:39:41;4.63;;;1.80;;
80157;SDS011;74139;59.092;37.932;2024-02-28T05:42:07;4.30;;;1.65;;
80157;SDS011;74139;59.092;37.932;2024-02-28T05:44:33;3.15;;;1.40;;
80157;SDS011;74139;59.092;37.932;2024-02-28T05:46:59;2.88;;;1.40;;
80157;SDS011;74139;59.092;37.932;2024-02-28T05:49:26;2.88;;;1.58;;
80157;SDS011;74139;59.092;37.932;2024-02-28T05:51:52;3.33;;;1.38;;
80157;SDS011;74139;59.092;37.932;2024-02-28T05:54:19;3.95;;;1.70;;
80157;SDS011;74139;59.092;37.932;2024-02-28T05:56:45;3.80;;;1.40;;
80157;SDS011;74139;59.092;37.932;2024-02-28T05:59:11;4.10;;;1.83;;
80157;SDS011;74139;59.092;37.932;2024-02-28T06:01:36;2.50;;;1.30;;
80157;SDS011;74139;59.092;37.932;2024-02-28T06:04:03;4.03;;;1.80;;
80157;SDS011;74139;59.092;37.932;2024-02-28T06:06:29;2.35;;;1.30;;
80157;SDS011;74139;59.092;37.932;2024-02-28T06:08:55;4.05;;;1.80;;
80157;SDS011;74139;59.092;37.932;2024-02-28T06:11:21;3.45;;;1.55;;
80157;SDS011;74139;59.092;37.932;2024-02-28T06:13:47;5.13;;;1.30;;
80157;SDS011;74139;59.092;37.932;2024-02-28T06:16:15;2.95;;;1.30;;
80157;SDS011;74139;59.092;37.932;2024-02-28T06:18:41;3.35;;;1.17;;
80157;SDS011;74139;59.092;37.932;2024-02-28T06:21:07;2.85;;;1.40;;
80157;SDS011;74139;59.092;37.932;2024-02-28T06:23:33;3.67;;;1.55;;
80157;SDS011;74139;59.092;37.932;2024-02-28T06:25:59;4.63;;;1.40;;
80157;SDS011;74139;59.092;37.932;2024-02-28T06:28:25;2.58;;;1.42;;
80157;SDS011;74139;59.092;37.932;2024-02-28T06:30:51;6.10;;;1.88;;
80157;SDS011;74139;59.092;37.932;2024-02-28T06:33:16;2.20;;;1.10;;
80157;SDS011;74139;59.092;37.932;2024-02-28T06:35:42;4.78;;;1.40;;
80157;SDS011;74139;59.092;37.932;2024-02-28T06:38:08;4.65;;;1.52;;
80157;SDS011;74139;59.092;37.932;2024-02-28T06:40:34;4.90;;;1.48;;
80157;SDS011;74139;59.092;37.932;2024-02-28T06:43:00;6.43;;;1.75;;
80157;SDS011;74139;59.092;37.932;2024-02-28T06:45:26;2.50;;;1.20;;
80157;SDS011;74139;59.092;37.932;2024-02-28T06:47:52;4.05;;;1.40;;
80157;SDS011;74139;59.092;37.932;2024-02-28T06:50:18;3.53;;;1.27;;
80157;SDS011;74139;59.092;37.932;2024-02-28T06:52:44;2.90;;;1.27;;
80157;SDS011;74139;59.092;37.932;2024-02-28T06:55:10;3.72;;;1.60;;
80157;SDS011;74139;59.092;37.932;2024-02-28T06:57:39;2.38;;;1.30;;
80157;SDS011;74139;59.092;37.932;2024-02-28T07:00:06;2.95;;;1.30;;
80157;SDS011;74139;59.092;37.932;2024-02-28T07:02:36;3.13;;;1.38;;
80157;SDS011;74139;59.092;37.932;2024-02-28T07:05:03;3.03;;;1.20;;
80157;SDS011;74139;59.092;37.932;2024-02-28T07:07:33;6.15;;;1.35;;
80157;SDS011;74139;59.092;37.932;2024-02-28T07:09:59;3.97;;;1.25;;
80157;SDS011;74139;59.092;37.932;2024-02-28T07:12:25;3.70;;;1.23;;
80157;SDS011;74139;59.092;37.932;2024-02-28T07:14:51;3.40;;;1.35;;
80157;SDS011;74139;59.092;37.932;2024-02-28T07:17:17;2.03;;;1.20;;
80157;SDS011;74139;59.092;37.932;2024-02-28T07:19:43;4.07;;;1.60;;
80157;SDS011;74139;59.092;37.932;2024-02-28T07:22:09;2.35;;;1.20;;
80157;SDS011;74139;59.092;37.932;2024-02-28T07:24:35;2.90;;;1.30;;
80157;SDS011;74139;59.092;37.932;2024-02-28T07:27:00;3.28;;;1.50;;
80157;SDS011;74139;59.092;37.932;2024-02-28T07:29:27;3.65;;;1.48;;
80157;SDS011;74139;59.092;37.932;2024-02-28T07:31:53;2.45;;;1.45;;
80157;SDS011;74139;59.092;37.932;2024-02-28T07:34:19;3.17;;;1.33;;
80157;SDS011;74139;59.092;37.932;2024-02-28T07:36:45;2.55;;;1.50;;
80157;SDS011;74139;59.092;37.932;2024-02-28T07:39:11;3.67;;;1.85;;
80157;SDS011;74139;59.092;37.932;2024-02-28T07:41:39;3.05;;;1.40;;
80157;SDS011;74139;59.092;37.932;2024-02-28T07:44:07;4.10;;;1.30;;
80157;SDS011;74139;59.092;37.932;2024-02-28T07:46:33;3.83;;;1.77;;
80157;SDS011;74139;59.092;37.932;2024-02-28T07:49:00;3.13;;;1.40;;
80157;SDS011;74139;59.092;37.932;2024-02-28T07:51:26;3.13;;;1.40;;
80157;SDS011;74139;59.092;37.932;2024-02-28T07:53:52;3.38;;;1.90;;
80157;SDS011;74139;59.092;37.932;2024-02-28T07:56:18;2.00;;;1.20;;
80157;SDS011;74139;59.092;37.932;2024-02-28T07:58:45;3.90;;;1.65;;
80157;SDS011;74139;59.092;37.932;2024-02-28T08:01:11;4.75;;;1.63;;
80157;SDS011;74139;59.092;37.932;2024-02-28T08:03:36;3.33;;;1.40;;
80157;SDS011;74139;59.092;37.932;2024-02-28T08:06:03;4.45;;;1.30;;
80157;SDS011;74139;59.092;37.932;2024-02-28T08:08:29;2.55;;;1.38;;
80157;SDS011;74139;59.092;37.932;2024-02-28T08:10:54;3.42;;;1.42;;
80157;SDS011;74139;59.092;37.932;2024-02-28T08:13:20;3.92;;;1.40;;
80157;SDS011;74139;59.092;37.932;2024-02-28T08:15:46;3.53;;;1.38;;
80157;SDS011;74139;59.092;37.932;2024-02-28T08:18:12;2.63;;;1.52;;
80157;SDS011;74139;59.092;37.932;2024-02-28T08:20:38;2.70;;;1.30;;
80157;SDS011;74139;59.092;37.932;2024-02-28T08:23:04;3.17;;;1.67;;
80157;SDS011;74139;59.092;37.932;2024-02-28T08:25:30;3.70;;;1.30;;
80157;SDS011;74139;59.092;37.932;2024-02-28T08:27:56;4.20;;;1.50;;
80157;SDS011;74139;59.092;37.932;2024-02-28T08:30:22;4.75;;;1.50;;
80157;SDS011;74139;59.092;37.932;2024-02-28T08:32:48;2.22;;;1.40;;
80157;SDS011;74139;59.092;37.932;2024-02-28T08:35:14;2.72;;;1.35;;
80157;SDS011;74139;59.092;37.932;2024-02-28T08:37:40;2.20;;;1.13;;
80157;SDS011;74139;59.092;37.932;2024-02-28T08:40:06;3.50;;;1.38;;
80157;SDS011;74139;59.092;37.932;2024-02-28T08:42:32;2.55;;;1.25;;
80157;SDS011;74139;59.092;37.932;2024-02-28T08:44:59;3.65;;;1.52;;
80157;SDS011;74139;59.092;37.932;2024-02-28T08:47:25;3.78;;;1.52;;
80157;SDS011;74139;59.092;37.932;2024-02-28T08:49:52;2.05;;;1.33;;
80157;SDS011;74139;59.092;37.932;2024-02-28T08:52:19;3.85;;;1.33;;
80157;SDS011;74139;59.092;37.932;2024-02-28T08:54:45;2.90;;;1.50;;
80157;SDS011;74139;59.092;37.932;2024-02-28T08:57:11;2.92;;;1.40;;
80157;SDS011;74139;59.092;37.932;2024-02-28T08:59:37;6.18;;;1.35;;
80157;SDS011;74139;59.092;37.932;2024-02-28T09:02:03;3.03;;;1.50;;
80157;SDS011;74139;59.092;37.932;2024-02-28T09:04:29;3.60;;;1.30;;
80157;SDS011;74139;59.092;37.932;2024-02-28T09:06:55;3.05;;;1.42;;
80157;SDS011;74139;59.092;37.932;2024-02-28T09:09:21;2.65;;;1.33;;
80157;SDS011;74139;59.092;37.932;2024-02-28T09:11:47;5.05;;;1.50;;
80157;SDS011;74139;59.092;37.932;2024-02-28T09:14:12;2.72;;;1.30;;
80157;SDS011;74139;59.092;37.932;2024-02-28T09:16:38;3.40;;;1.55;;
80157;SDS011;74139;59.092;37.932;2024-02-28T09:19:04;3.40;;;1.40;;
80157;SDS011;74139;59.092;37.932;2024-02-28T09:21:30;3.17;;;1.42;;
80157;SDS011;74139;59.092;37.932;2024-02-28T09:23:56;2.90;;;1.40;;
80157;SDS011;74139;59.092;37.932;2024-02-28T09:26:22;2.70;;;1.45;;
80157;SDS011;74139;59.092;37.932;2024-02-28T09:28:47;3.45;;;1.30;;
80157;SDS011;74139;59.092;37.932;2024-02-28T09:31:13;4.60;;;1.38;;
80157;SDS011;74139;59.092;37.932;2024-02-28T09:33:41;4.75;;;1.58;;
80157;SDS011;74139;59.092;37.932;2024-02-28T09:36:06;2.45;;;1.30;;
80157;SDS011;74139;59.092;37.932;2024-02-28T09:38:32;2.35;;;1.30;;
80157;SDS011;74139;59.092;37.932;2024-02-28T09:41:00;4.25;;;1.50;;
80157;SDS011;74139;59.092;37.932;2024-02-28T09:43:30;5.90;;;1.33;;
80157;SDS011;74139;59.092;37.932;2024-02-28T09:46:03;4.20;;;1.48;;
80157;SDS011;74139;59.092;37.932;2024-02-28T09:48:29;4.22;;;1.50;;
80157;SDS011;74139;59.092;37.932;2024-02-28T09:50:59;2.63;;;1.13;;
80157;SDS011;74139;59.092;37.932;2024-02-28T09:53:25;3.55;;;1.42;;
80157;SDS011;74139;59.092;37.932;2024-02-28T09:55:52;4.28;;;1.70;;
80157;SDS011;74139;59.092;37.932;2024-02-28T09:58:18;2.83;;;1.35;;
80157;SDS011;74139;59.092;37.932;2024-02-28T10:00:45;5.38;;;1.73;;
80157;SDS011;74139;59.092;37.932;2024-02-28T10:03:13;2.90;;;1.25;;
80157;SDS011;74139;59.092;37.932;2024-02-28T10:05:39;2.83;;;1.67;;
80157;SDS011;74139;59.092;37.932;2024-02-28T10:08:05;4.68;;;1.48;;
80157;SDS011;74139;59.092;37.932;2024-02-28T10:10:31;3.70;;;1.52;;
80157;SDS011;74139;59.092;37.932;2024-02-28T10:12:57;3.13;;;1.65;;
80157;SDS011;74139;59.092;37.932;2024-02-28T10:15:27;2.15;;;1.35;;
80157;SDS011;74139;59.092;37.932;2024-02-28T10:17:53;3.13;;;1.60;;
80157;SDS011;74139;59.092;37.932;2024-02-28T10:20:19;3.88;;;1.70;;
80157;SDS011;74139;59.092;37.932;2024-02-28T10:22:45;2.72;;;1.55;;
80157;SDS011;74139;59.092;37.932;2024-02-28T10:25:11;2.40;;;1.60;;
80157;SDS011;74139;59.092;37.932;2024-02-28T10:27:36;6.13;;;1.75;;
80157;SDS011;74139;59.092;37.932;2024-02-28T10:30:02;3.63;;;1.20;;
80157;SDS011;74139;59.092;37.932;2024-02-28T10:32:34;2.75;;;1.58;;
80157;SDS011;74139;59.092;37.932;2024-02-28T10:35:01;2.65;;;1.50;;
80157;SDS011;74139;59.092;37.932;2024-02-28T10:37:30;4.45;;;1.50;;
80157;SDS011;74139;59.092;37.932;2024-02-28T10:39:57;3.22;;;1.30;;
80157;SDS011;74139;59.092;37.932;2024-02-28T10:42:22;3.65;;;1.42;;
80157;SDS011;74139;59.092;37.932;2024-02-28T10:44:52;3.90;;;1.60;;
80157;SDS011;74139;59.092;37.932;2024-02-28T10:47:18;3.30;;;1.50;;
80157;SDS011;74139;59.092;37.932;2024-02-28T10:52:13;4.72;;;1.27;;
80157;SDS011;74139;59.092;37.932;2024-02-28T10:54:40;3.17;;;1.25;;
80157;SDS011;74139;59.092;37.932;2024-02-28T10:57:10;3.38;;;1.73;;
80157;SDS011;74139;59.092;37.932;2024-02-28T10:59:37;4.35;;;1.40;;
80157;SDS011;74139;59.092;37.932;2024-02-28T11:02:05;2.88;;;2.00;;
80157;SDS011;74139;59.092;37.932;2024-02-28T11:04:31;2.53;;;1.50;;
80157;SDS011;74139;59.092;37.932;2024-02-28T11:06:57;4.70;;;1.58;;
80157;SDS011;74139;59.092;37.932;2024-02-28T11:09:24;7.55;;;1.65;;
80157;SDS011;74139;59.092;37.932;2024-02-28T11:11:51;3.08;;;1.60;;
80157;SDS011;74139;59.092;37.932;2024-02-28T11:14:17;2.35;;;1.20;;
80157;SDS011;74139;59.092;37.932;2024-02-28T11:16:47;4.13;;;1.60;;
80157;SDS011;74139;59.092;37.932;2024-02-28T11:19:20;4.75;;;1.38;;
80157;SDS011;74139;59.092;37.932;2024-02-28T11:21:56;2.33;;;1.30;;
80157;SDS011;74139;59.092;37.932;2024-02-28T11:24:22;3.45;;;1.52;;
80157;SDS011;74139;59.092;37.932;2024-02-28T11:26:49;2.92;;;1.45;;
80157;SDS011;74139;59.092;37.932;2024-02-28T11:29:16;4.90;;;1.60;;
80157;SDS011;74139;59.092;37.932;2024-02-28T11:31:42;3.03;;;1.50;;
80157;SDS011;74139;59.092;37.932;2024-02-28T11:34:08;2.85;;;1.40;;
80157;SDS011;74139;59.092;37.932;2024-02-28T11:36:34;3.45;;;1.70;;
80157;SDS011;74139;59.092;37.932;2024-02-28T11:38:59;4.60;;;1.45;;
80157;SDS011;74139;59.092;37.932;2024-02-28T11:41:26;4.40;;;1.55;;
80157;SDS011;74139;59.092;37.932;2024-02-28T11:43:55;2.90;;;1.50;;
80157;SDS011;74139;59.092;37.932;2024-02-28T11:46:20;3.30;;;1.85;;
80157;SDS011;74139;59.092;37.932;2024-02-28T11:48:47;2.90;;;1.42;;
80157;SDS011;74139;59.092;37.932;2024-02-28T11:51:12;2.38;;;1.17;;
80157;SDS011;74139;59.092;37.932;2024-02-28T11:53:38;5.07;;;1.60;;
80157;SDS011;74139;59.092;37.932;2024-02-28T11:56:04;3.65;;;1.45;;
80157;SDS011;74139;59.092;37.932;2024-02-28T11:58:30;3.63;;;1.60;;
80157;SDS011;74139;59.092;37.932;2024-02-28T12:00:56;6.18;;;1.73;;
80157;SDS011;74139;59.092;37.932;2024-02-28T12:03:24;2.90;;;1.33;;
80157;SDS011;74139;59.092;37.932;2024-02-28T12:05:51;3.33;;;1.67;;
80157;SDS011;74139;59.092;37.932;2024-02-28T12:08:17;3.35;;;1.25;;
80157;SDS011;74139;59.092;37.932;2024-02-28T12:10:45;3.17;;;1.80;;
80157;SDS011;74139;59.092;37.932;2024-02-28T12:13:11;5.18;;;1.75;;
80157;SDS011;74139;59.092;37.932;2024-02-28T12:15:39;4.05;;;1.52;;
80157;SDS011;74139;59.092;37.932;2024-02-28T12:18:07;2.72;;;1.38;;
80157;SDS011;74139;59.092;37.932;2024-02-28T12:20:33;2.42;;;1.23;;
80157;SDS011;74139;59.092;37.932;2024-02-28T12:22:59;2.75;;;1.27;;
80157;SDS011;74139;59.092;37.932;2024-02-28T12:25:25;4.13;;;1.45;;
80157;SDS011;74139;59.092;37.932;2024-02-28T12:27:51;2.67;;;1.42;;
80157;SDS011;74139;59.092;37.932;2024-02-28T12:30:16;3.42;;;1.60;;
80157;SDS011;74139;59.092;37.932;2024-02-28T12:32:42;2.22;;;1.45;;
80157;SDS011;74139;59.092;37.932;2024-02-28T12:35:08;3.22;;;1.48;;
80157;SDS011;74139;59.092;37.932;2024-02-28T12:37:34;3.78;;;1.52;;
80157;SDS011;74139;59.092;37.932;2024-02-28T12:40:00;3.00;;;1.20;;
80157;SDS011;74139;59.092;37.932;2024-02-28T12:42:26;3.53;;;1.75;;
80157;SDS011;74139;59.092;37.932;2024-02-28T12:44:52;3.55;;;1.30;;
80157;SDS011;74139;59.092;37.932;2024-02-28T12:47:18;4.20;;;1.38;;
80157;SDS011;74139;59.092;37.932;2024-02-28T12:49:44;3.42;;;1.65;;
80157;SDS011;74139;59.092;37.932;2024-02-28T12:52:10;3.13;;;1.10;;
80157;SDS011;74139;59.092;37.932;2024-02-28T12:54:35;3.17;;;1.50;;
80157;SDS011;74139;59.092;37.932;2024-02-28T12:57:01;3.53;;;1.77;;
80157;SDS011;74139;59.092;37.932;2024-02-28T12:59:30;2.35;;;1.40;;
80157;SDS011;74139;59.092;37.932;2024-02-28T13:01:56;1.88;;;1.35;;
80157;SDS011;74139;59.092;37.932;2024-02-28T13:04:22;3.58;;;1.20;;
80157;SDS011;74139;59.092;37.932;2024-02-28T13:06:48;3.28;;;1.27;;
80157;SDS011;74139;59.092;37.932;2024-02-28T13:09:13;1.92;;;1.30;;
80157;SDS011;74139;59.092;37.932;2024-02-28T13:14:06;3.83;;;1.40;;
80157;SDS011;74139;59.092;37.932;2024-02-28T13:16:34;2.83;;;1.52;;
80157;SDS011;74139;59.092;37.932;2024-02-28T13:19:00;3.63;;;1.50;;
80157;SDS011;74139;59.092;37.932;2024-02-28T13:21:26;2.13;;;1.50;;
80157;SDS011;74139;59.092;37.932;2024-02-28T13:23:51;5.65;;;1.60;;
80157;SDS011;74139;59.092;37.932;2024-02-28T13:26:20;2.67;;;1.55;;
80157;SDS011;74139;59.092;37.932;2024-02-28T13:28:46;3.33;;;1.30;;
80157;SDS011;74139;59.092;37.932;2024-02-28T13:31:12;3.45;;;1.50;;
80157;SDS011;74139;59.092;37.932;2024-02-28T13:33:38;3.80;;;1.25;;
80157;SDS011;74139;59.092;37.932;2024-02-28T13:36:06;3.80;;;1.30;;
80157;SDS011;74139;59.092;37.932;2024-02-28T13:38:32;3.20;;;1.77;;
80157;SDS011;74139;59.092;37.932;2024-02-28T13:40:58;5.40;;;1.50;;
80157;SDS011;74139;59.092;37.932;2024-02-28T13:43:25;3.65;;;1.55;;
80157;SDS011;74139;59.092;37.932;2024-02-28T13:45:51;3.90;;;1.95;;
80157;SDS011;74139;59.092;37.932;2024-02-28T13:48:20;2.70;;;1.30;;
80157;SDS011;74139;59.092;37.932;2024-02-28T13:50:47;3.70;;;1.55;;
80157;SDS011;74139;59.092;37.932;2024-02-28T13:53:13;4.00;;;1.75;;
80157;SDS011;74139;59.092;37.932;2024-02-28T13:55:46;2.92;;;1.50;;
80157;SDS011;74139;59.092;37.932;2024-02-28T13:58:12;4.60;;;1.70;;
80157;SDS011;74139;59.092;37.932;2024-02-28T14:00:38;2.20;;;1.48;;
80157;SDS011;74139;59.092;37.932;2024-02-28T14:03:05;6.05;;;1.92;;
80157;SDS011;74139;59.092;37.932;2024-02-28T14:05:32;4.35;;;1.70;;
80157;SDS011;74139;59.092;37.932;2024-02-28T14:07:58;2.75;;;1.40;;
80157;SDS011;74139;59.092;37.932;2024-02-28T14:10:24;5.85;;;1.70;;
80157;SDS011;74139;59.092;37.932;2024-02-28T14:12:50;3.90;;;1.40;;
80157;SDS011;74139;59.092;37.932;2024-02-28T14:15:18;2.55;;;1.38;;
80157;SDS011;74139;59.092;37.932;2024-02-28T14:17:44;3.13;;;1.45;;
80157;SDS011;74139;59.092;37.932;2024-02-28T14:20:10;3.30;;;1.30;;
80157;SDS011;74139;59.092;37.932;2024-02-28T14:22:36;4.28;;;1.33;;
80157;SDS011;74139;59.092;37.932;2024-02-28T14:25:02;3.92;;;1.80;;
80157;SDS011;74139;59.092;37.932;2024-02-28T14:27:29;2.83;;;1.58;;
80157;SDS011;74139;59.092;37.932;2024-02-28T14:29:58;3.25;;;1.50;;
80157;SDS011;74139;59.092;37.932;2024-02-28T14:32:24;3.05;;;1.42;;
80157;SDS011;74139;59.092;37.932;2024-02-28T14:34:50;4.07;;;1.67;;